Kezdőlap
METAR-TAF:

METAR-TAF

Repülőterek :

Miyako-jima, Japán

földrajzi szélesség: 24-47N, földrajzi hosszúság: 125-17E, magasság: 40 m

Jelenlegi meteorológiai megfigyelések

A jelentés 1 órával és 6 perccel ezelõtt készült, 15:00 UTC
Délkeleti szél 4 kt
Hőmérséklet 29°C
Páratartalom 89%
Légköri nyomás 1013 hPa
Látótávolság 10 km, vagy több
Kevés felhő 2000 lábon

METAR: ROMY 161500Z AUTO 14004KT 9999 FEW020 29/27 Q1013

Idő: 01:06 (16:06 UTC)


TAF: hiányzik

Meteorológiai megfigyelések és előrejelzések több, mint 4000 repülőtéren (METAR és TAF jelentéseket).

A térképen piros és sárga pontok jelzik az elérhető meteorológiai állomásokat.

Mozgassa az egeret a pont fölött, hogy megjelenjen az állomás neve.

Azután kattintson az időjárási megfigyelések és előrejelzések megtekintéséhez.

A térkép megváltoztatása: kattintson a fekete keresztel jelölt zöld gombra ráközelítéshez, a vonallal jelölt zöld gombra távolításhoz, vagy a zöld nyilakra a szomszédos térképek eléréséhez.


METAR-TAF: